Time;durP1;ratioP1;P1;durP2;ratioP2;P2;SDS_P1;SDS_P2;PMS_P1;PMS_P2;Temp;Humidity;BMP_temperature;BMP_pressure;BME280_temperature;BME280_humidity;BME280_pressure;Samples;Min_cycle;Max_cycle;Signal;HPM_P1;HPM_P2
2023/03/07 00:02:15;;;;;;;77.70;39.80;;;;;;;2.68;50.43;99740.06;124121;1099;102157;-72
2023/03/07 00:04:48;;;;;;;81.10;39.85;;;;;;;2.66;49.98;99739.06;124117;1099;104360;-72
2023/03/07 00:07:19;;;;;;;78.40;38.55;;;;;;;2.63;50.54;99727.66;124104;1099;104265;-72
2023/03/07 00:09:50;;;;;;;80.90;39.20;;;;;;;2.62;50.75;99728.48;124114;1099;101976;-73
2023/03/07 00:12:21;;;;;;;82.67;39.03;;;;;;;2.64;50.65;99727.73;124144;1099;104191;-72
2023/03/07 00:14:53;;;;;;;72.77;34.20;;;;;;;2.65;51.08;99724.35;124159;1099;104277;-72
2023/03/07 00:17:24;;;;;;;74.13;36.37;;;;;;;2.68;51.12;99721.02;124122;1099;103713;-72
2023/03/07 00:19:55;;;;;;;69.83;35.70;;;;;;;2.69;50.63;99710.73;124129;1099;104319;-72
2023/03/07 00:22:26;;;;;;;62.93;33.83;;;;;;;2.71;50.17;99713.41;124125;1102;104166;-72
2023/03/07 00:24:58;;;;;;;68.80;35.07;;;;;;;2.74;51.06;99713.58;124102;1099;104277;-72
2023/03/07 00:27:32;;;;;;;70.80;36.53;;;;;;;2.76;51.30;99705.89;125159;1099;104730;-72
2023/03/07 00:30:05;;;;;;;80.73;38.97;;;;;;;2.77;50.38;99713.75;124152;1099;101898;-72
2023/03/07 00:32:36;;;;;;;79.03;41.10;;;;;;;2.78;51.21;99702.59;124092;1099;104255;-72
2023/03/07 00:35:08;;;;;;;87.37;42.00;;;;;;;2.79;50.77;99704.37;124081;1099;104306;-73
2023/03/07 00:37:39;;;;;;;82.33;40.93;;;;;;;2.84;50.77;99699.45;124166;1099;104223;-73
2023/03/07 00:40:14;;;;;;;83.33;40.90;;;;;;;2.86;50.86;99692.63;124124;1102;102034;-73
2023/03/07 00:42:45;;;;;;;78.17;39.43;;;;;;;2.85;51.24;99701.20;124159;1099;104245;-73
2023/03/07 00:45:17;;;;;;;76.57;38.60;;;;;;;2.81;51.01;99700.16;124121;1099;104622;-73
2023/03/07 00:47:48;;;;;;;70.57;36.50;;;;;;;2.76;51.29;99696.44;124119;1102;104329;-73
2023/03/07 00:50:19;;;;;;;76.13;37.33;;;;;;;2.73;50.65;99691.09;124120;1099;104277;-73
2023/03/07 00:52:51;;;;;;;73.87;39.03;;;;;;;2.72;51.42;99686.71;124183;1101;104195;-73
2023/03/07 00:55:22;;;;;;;80.77;40.07;;;;;;;2.72;50.92;99672.87;124135;1102;104273;-73
2023/03/07 00:57:53;;;;;;;78.57;39.90;;;;;;;2.72;51.38;99672.87;124088;1102;104328;-73
2023/03/07 01:00:25;;;;;;;76.13;37.17;;;;;;;2.71;50.76;99677.14;124134;1099;104172;-73
2023/03/07 01:03:00;;;;;;;76.17;36.57;;;;;;;2.72;51.35;99672.87;124615;1098;104306;-74
2023/03/07 01:05:32;;;;;;;71.10;35.90;;;;;;;2.72;50.86;99667.70;124625;1099;102061;-73
2023/03/07 01:08:03;;;;;;;70.03;36.43;;;;;;;2.68;51.57;99666.62;125645;1098;101922;-74
2023/03/07 01:10:35;;;;;;;72.20;36.00;;;;;;;2.59;51.55;99655.80;124646;1099;104342;-74
2023/03/07 01:13:08;;;;;;;70.17;36.60;;;;;;;2.59;52.05;99655.80;124219;1099;104274;-73
2023/03/07 01:15:40;;;;;;;73.13;36.17;;;;;;;2.56;51.49;99656.51;124180;1099;102489;-73
2023/03/07 01:18:12;;;;;;;72.30;36.73;;;;;;;2.51;51.45;99650.20;124682;1099;104201;-73
2023/03/07 01:20:44;;;;;;;70.47;36.27;;;;;;;2.49;51.38;99647.52;124185;1099;104245;-74
2023/03/07 01:23:15;;;;;;;73.30;37.37;;;;;;;2.47;51.49;99645.65;124499;1099;104275;-73
2023/03/07 01:25:47;;;;;;;68.87;34.50;;;;;;;2.46;51.88;99643.86;124606;1098;104182;-73
2023/03/07 01:28:18;;;;;;;76.00;37.03;;;;;;;2.48;51.59;99642.27;124510;1099;101958;-73
2023/03/07 01:30:58;;;;;;;65.10;32.10;;;;;;;2.50;51.53;99640.63;124582;1099;104162;-73
2023/03/07 01:33:29;;;;;;;58.17;30.07;;;;;;;2.51;51.72;99640.72;125577;1099;118805;-73
2023/03/07 01:36:00;;;;;;;62.47;31.57;;;;;;;2.53;51.44;99638.21;124574;1099;104040;-73
2023/03/07 01:38:33;;;;;;;62.17;30.83;;;;;;;2.55;51.86;99630.52;124556;1099;104262;-73
2023/03/07 01:41:06;;;;;;;66.67;30.33;;;;;;;2.53;51.59;99630.44;124583;1099;102338;-73
2023/03/07 01:43:38;;;;;;;59.63;30.53;;;;;;;2.53;52.29;99622.67;127323;1098;101452;-74
2023/03/07 01:46:42;;;;;;;53.40;28.70;;;;;;;2.54;51.85;99614.11;124644;1098;102092;-73
2023/03/07 01:49:22;;;;;;;55.13;28.93;;;;;;;2.54;52.30;99601.16;124614;1098;104207;-73
2023/03/07 01:51:59;;;;;;;;;;;;;;;2.53;52.42;99598.48;124630;1099;104239;-73
2023/03/07 01:54:33;;;;;;;55.30;26.17;;;;;;;2.49;52.08;99597.41;124539;1099;104163;-73
2023/03/07 01:57:06;;;;;;;54.83;27.55;;;;;;;2.44;51.87;99591.10;124530;1099;101991;-73
2023/03/07 01:59:43;;;;;;;55.20;28.13;;;;;;;2.43;52.33;99595.41;124544;1099;104154;-73
2023/03/07 02:02:18;;;;;;;54.60;25.97;;;;;;;2.41;51.99;99593.53;124607;1099;104332;-73
2023/03/07 02:04:52;;;;;;;52.90;25.77;;;;;;;2.40;51.98;99589.15;124537;1099;104162;-73
2023/03/07 02:07:28;;;;;;;52.43;25.30;;;;;;;2.37;52.34;99582.13;125713;1098;104240;-73
2023/03/07 02:10:00;;;;;;;50.90;24.10;;;;;;;2.34;52.06;99588.02;124584;1099;101913;-73
2023/03/07 02:12:32;;;;;;;45.30;23.50;;;;;;;2.32;52.61;99586.14;124612;1099;104479;-73
2023/03/07 02:15:05;;;;;;;51.20;24.63;;;;;;;2.32;52.34;99588.73;124566;1099;104331;-73
2023/03/07 02:17:37;;;;;;;47.03;22.63;;;;;;;2.28;52.57;99591.98;125656;1098;104169;-73
2023/03/07 02:20:26;;;;;;;48.97;23.07;;;;;;;2.26;52.53;99594.49;124542;1099;104156;-73
2023/03/07 02:22:58;;;;;;;46.73;24.00;;;;;;;2.25;52.66;99595.29;125206;1099;101815;-73
2023/03/07 02:25:37;;;;;;;48.13;22.63;;;;;;;2.25;52.72;99597.87;124606;1098;104254;-73
2023/03/07 02:28:11;;;;;;;47.47;22.57;;;;;;;2.24;52.47;99596.09;124512;1099;104235;-73
2023/03/07 02:30:52;;;;;;;;;;;;;;;2.23;53.05;99593.41;124695;1099;104297;-73
2023/03/07 02:33:23;;;;;;;43.70;22.73;;;;;;;2.21;52.76;99606.27;125613;1099;104239;-74
2023/03/07 02:35:59;;;;;;;49.07;21.60;;;;;;;2.22;52.29;99608.06;124654;1099;104377;-73
2023/03/07 02:38:36;;;;;;;45.07;22.03;;;;;;;2.22;52.35;99608.06;124849;1099;104271;-73
2023/03/07 02:41:10;;;;;;;40.83;20.60;;;;;;;2.23;52.87;99607.27;124742;1099;104080;-73
2023/03/07 02:43:41;;;;;;;40.47;20.80;;;;;;;2.25;52.64;99597.87;124675;1099;101931;-73
2023/03/07 02:46:13;;;;;;;43.33;20.57;;;;;;;2.28;52.94;99592.87;124698;1099;104242;-73
2023/03/07 02:48:44;;;;;;;41.70;20.10;;;;;;;2.30;52.87;99591.23;124645;1099;104281;-73
2023/03/07 02:51:16;;;;;;;40.97;19.30;;;;;;;2.32;52.84;99593.91;124665;1099;102012;-73
2023/03/07 02:53:47;;;;;;;46.37;21.40;;;;;;;2.35;52.80;99581.13;124587;1099;104402;-73
2023/03/07 02:56:19;;;;;;;41.03;19.20;;;;;;;2.36;53.20;99576.87;124689;1098;104130;-73
2023/03/07 02:58:55;;;;;;;42.57;20.03;;;;;;;2.35;53.10;99578.55;124680;1099;104239;-73
2023/03/07 03:01:26;;;;;;;45.80;21.67;;;;;;;2.35;53.46;99575.95;124678;1099;104235;-73
2023/03/07 03:03:58;;;;;;;43.10;20.83;;;;;;;2.35;52.91;99581.13;124292;1099;101942;-73
2023/03/07 03:06:29;;;;;;;45.50;21.73;;;;;;;2.35;53.31;99583.72;124626;1099;104328;-73
2023/03/07 03:09:01;;;;;;;44.57;20.40;;;;;;;2.35;53.25;99583.72;124573;1098;104657;-73
2023/03/07 03:11:32;;;;;;;45.87;21.43;;;;;;;2.35;53.03;99578.55;124681;1099;104320;-73
2023/03/07 03:14:04;;;;;;;47.60;20.53;;;;;;;2.35;53.22;99575.95;124660;1099;101833;-73
2023/03/07 03:16:35;;;;;;;38.73;19.70;;;;;;;2.34;53.41;99567.31;124703;1099;104239;-73
2023/03/07 03:19:06;;;;;;;42.97;20.60;;;;;;;2.33;52.92;99567.23;124624;1099;101830;-73
2023/03/07 03:21:38;;;;;;;45.70;20.90;;;;;;;2.33;53.28;99565.52;124631;1099;104176;-73
2023/03/07 03:24:10;;;;;;;55.37;22.83;;;;;;;2.32;53.01;99555.08;124625;1099;104239;-73
2023/03/07 03:26:42;;;;;;;40.33;20.50;;;;;;;2.32;53.43;99562.84;124553;1099;103678;-73
2023/03/07 03:29:13;;;;;;;43.33;21.57;;;;;;;2.30;53.47;99555.00;124649;1099;104159;-73
2023/03/07 03:31:46;;;;;;;43.97;22.03;;;;;;;2.30;53.59;99556.70;124708;1099;104307;-73
2023/03/07 03:34:17;;;;;;;40.83;21.00;;;;;;;2.28;53.66;99553.16;124670;1099;104296;-73
2023/03/07 03:36:49;;;;;;;44.23;22.50;;;;;;;2.25;53.70;99546.11;124928;1099;104269;-73
2023/03/07 03:39:20;;;;;;;45.00;22.13;;;;;;;2.25;53.44;99542.64;124647;1099;104341;-73
2023/03/07 03:41:55;;;;;;;47.87;23.40;;;;;;;2.21;54.20;99540.68;124577;1099;104256;-73
2023/03/07 03:44:27;;;;;;;46.07;21.90;;;;;;;2.18;53.86;99535.34;124606;1099;104335;-73
2023/03/07 03:46:58;;;;;;;48.53;23.33;;;;;;;2.13;54.90;99530.80;125200;1099;104175;-73
2023/03/07 03:49:30;;;;;;;45.90;22.87;;;;;;;2.10;54.28;99530.66;124617;1099;101881;-73
2023/03/07 03:52:03;;;;;;;44.20;22.10;;;;;;;2.09;54.14;99531.46;124634;1099;104245;-73
2023/03/07 03:54:35;;;;;;;49.33;22.80;;;;;;;2.10;54.38;99524.58;124657;1099;104191;-73
2023/03/07 03:57:07;;;;;;;45.63;21.63;;;;;;;2.08;54.46;99521.91;124637;1099;101948;-73
2023/03/07 03:59:38;;;;;;;43.87;22.43;;;;;;;2.06;54.31;99528.70;124624;1099;101843;-73
2023/03/07 04:02:10;;;;;;;47.17;21.80;;;;;;;2.04;54.25;99525.16;124528;1099;104310;-73
2023/03/07 04:04:41;;;;;;;46.50;21.70;;;;;;;1.99;54.70;99531.76;124587;1099;104243;-73
2023/03/07 04:07:12;;;;;;;49.77;21.73;;;;;;;1.96;54.67;99529.00;124660;1099;104208;-73
2023/03/07 04:09:44;;;;;;;46.90;21.93;;;;;;;1.92;54.06;99520.20;124510;1098;104310;-73
2023/03/07 04:12:15;;;;;;;55.03;22.03;;;;;;;1.91;55.18;99520.11;125402;1099;102839;-73
2023/03/07 04:14:46;;;;;;;46.13;22.53;;;;;;;1.88;55.28;99515.65;124662;1099;104242;-73
2023/03/07 04:17:18;;;;;;;51.30;23.80;;;;;;;1.87;55.32;99512.98;124462;1099;104332;-73
2023/03/07 04:19:49;;;;;;;46.43;23.03;;;;;;;1.83;55.06;99508.47;124606;1098;102716;-73
2023/03/07 04:22:20;;;;;;;52.13;24.13;;;;;;;1.80;55.37;99509.17;125688;1098;103381;-73
2023/03/07 04:24:52;;;;;;;49.43;23.77;;;;;;;1.77;54.61;99511.59;124591;1099;104204;-73
2023/03/07 04:27:23;;;;;;;48.33;23.07;;;;;;;1.76;55.41;99509.80;125564;1099;104162;-73
2023/03/07 04:29:55;;;;;;;52.00;23.63;;;;;;;1.75;55.22;99515.80;124582;1099;101870;-73
2023/03/07 04:32:26;;;;;;;52.57;24.63;;;;;;;1.76;55.47;99523.65;124208;1099;104464;-73
2023/03/07 04:34:57;;;;;;;48.07;24.73;;;;;;;1.78;55.35;99532.38;124532;1099;104118;-73
2023/03/07 04:37:29;;;;;;;51.17;24.70;;;;;;;1.82;55.62;99524.78;124626;1099;104129;-73
2023/03/07 04:40:00;;;;;;;54.80;25.40;;;;;;;1.86;55.52;99526.74;124557;1099;104271;-73
2023/03/07 04:42:31;;;;;;;53.10;24.80;;;;;;;1.78;56.16;99516.85;124618;1099;104313;-73
2023/03/07 04:45:04;;;;;;;52.63;25.27;;;;;;;1.90;55.48;99526.08;124463;1099;104265;-73
2023/03/07 04:47:35;;;;;;;51.30;23.97;;;;;;;1.93;56.30;99527.16;124545;1099;107194;-73
2023/03/07 04:50:08;;;;;;;49.67;23.73;;;;;;;1.98;55.50;99527.41;124592;1099;104213;-73
2023/03/07 04:52:40;;;;;;;51.35;24.67;;;;;;;2.05;55.56;99524.33;124566;1099;104166;-73
2023/03/07 04:55:13;;;;;;;51.87;24.43;;;;;;;2.12;56.14;99525.53;124629;1099;104236;-74
2023/03/07 04:57:45;;;;;;;49.67;24.00;;;;;;;2.20;55.67;99528.53;124629;1099;101903;-72
2023/03/07 05:00:19;;;;;;;50.53;23.90;;;;;;;2.26;55.92;99521.09;124157;1099;101864;-72
2023/03/07 05:02:51;;;;;;;53.73;25.17;;;;;;;2.35;56.35;99537.13;124226;1099;104262;-72
2023/03/07 05:05:23;;;;;;;50.03;23.87;;;;;;;2.41;56.13;99532.27;124239;1099;103682;-73
2023/03/07 05:07:54;;;;;;;55.73;26.23;;;;;;;2.49;55.68;99536.17;125904;1098;104194;-72
2023/03/07 05:10:26;;;;;;;49.80;24.20;;;;;;;2.58;55.64;99525.38;124151;1099;104399;-72
2023/03/07 05:12:57;;;;;;;51.30;24.50;;;;;;;2.65;56.24;99522.31;124154;1099;101832;-74
2023/03/07 05:15:29;;;;;;;55.90;24.07;;;;;;;2.76;55.77;99529.72;124163;1099;104284;-73
2023/03/07 05:18:00;;;;;;;52.23;25.70;;;;;;;2.83;55.98;99522.34;124202;1099;110864;-73
2023/03/07 05:20:32;;;;;;;44.67;22.93;;;;;;;2.90;58.61;99525.23;124660;1099;101999;-73
2023/03/07 05:23:04;;;;;;;53.03;25.10;;;;;;;2.95;57.33;99521.20;125607;1099;104385;-73
2023/03/07 05:25:35;;;;;;;51.40;24.27;;;;;;;3.01;56.63;99519.80;124557;1099;104412;-75
2023/03/07 05:28:07;;;;;;;50.07;26.27;;;;;;;3.05;57.51;99526.92;124619;1098;104323;-74
2023/03/07 05:30:38;;;;;;;55.80;25.97;;;;;;;3.13;56.94;99522.13;124190;1099;101877;-73
2023/03/07 05:33:09;;;;;;;47.20;24.20;;;;;;;3.20;57.41;99518.13;124606;1099;104332;-73
2023/03/07 05:35:41;;;;;;;56.33;23.93;;;;;;;3.24;57.01;99513.16;124556;1099;104323;-72
2023/03/07 05:38:14;;;;;;;54.07;27.03;;;;;;;3.27;58.26;99511.52;125607;1099;104356;-73
2023/03/07 05:40:45;;;;;;;58.27;25.90;;;;;;;3.31;57.96;99510.88;124519;1099;104210;-73
2023/03/07 05:43:17;;;;;;;50.83;25.40;;;;;;;3.34;57.57;99516.20;124544;1099;104265;-73
2023/03/07 05:45:49;;;;;;;52.23;26.93;;;;;;;3.38;57.09;99510.33;124587;1099;104233;-73
2023/03/07 05:48:20;;;;;;;59.73;27.00;;;;;;;3.42;56.75;99512.27;124608;1099;105594;-74
2023/03/07 05:50:52;;;;;;;51.60;26.20;;;;;;;3.49;57.11;99511.77;124598;1099;103726;-73
2023/03/07 05:53:23;;;;;;;54.27;27.23;;;;;;;3.56;57.64;99510.34;124663;1098;101903;-75
2023/03/07 05:55:55;;;;;;;53.63;25.20;;;;;;;3.67;57.23;99516.05;124563;1099;101836;-73
2023/03/07 05:58:26;;;;;;;52.70;24.33;;;;;;;3.81;57.67;99509.78;124603;1099;104239;-74
2023/03/07 06:00:58;;;;;;;51.87;26.17;;;;;;;3.96;57.85;99509.62;124722;1099;102216;-74
2023/03/07 06:03:29;;;;;;;51.70;24.43;;;;;;;4.11;57.87;99507.73;124628;1099;101977;-73
2023/03/07 06:06:01;;;;;;;50.83;23.30;;;;;;;4.25;57.98;99508.32;124629;1099;104249;-72
2023/03/07 06:08:33;;;;;;;54.40;25.40;;;;;;;4.35;57.52;99504.45;124557;1099;102217;-73
2023/03/07 06:11:05;;;;;;;55.87;24.83;;;;;;;4.44;58.06;99504.86;124662;1099;102278;-72
2023/03/07 06:13:38;;;;;;;52.98;22.70;;;;;;;4.50;57.50;99514.61;124728;1099;101934;-73
2023/03/07 06:16:10;;;;;;;45.87;22.23;;;;;;;4.55;57.64;99512.22;124547;1098;104380;-71
2023/03/07 06:18:42;;;;;;;50.90;24.33;;;;;;;4.61;57.68;99507.29;124603;1099;102418;-72
2023/03/07 06:21:17;;;;;;;48.33;23.40;;;;;;;4.57;58.14;99492.41;124564;1099;101914;-71
2023/03/07 06:23:50;;;;;;;49.37;21.80;;;;;;;4.77;57.48;99519.23;124577;1099;101862;-72
2023/03/07 06:26:23;;;;;;;43.08;21.37;;;;;;;4.89;57.68;99526.68;124585;1099;101964;-71
2023/03/07 06:28:57;;;;;;;40.93;19.43;;;;;;;5.00;57.55;99520.22;124575;1099;104191;-71
2023/03/07 06:31:30;;;;;;;41.93;20.67;;;;;;;5.10;57.29;99529.31;124604;1099;104267;-72
2023/03/07 06:34:02;;;;;;;46.30;22.27;;;;;;;5.15;57.44;99522.58;124596;1099;104165;-72
2023/03/07 06:36:33;;;;;;;45.90;20.73;;;;;;;5.22;57.71;99529.83;124557;1099;104245;-72
2023/03/07 06:39:08;;;;;;;41.37;19.90;;;;;;;5.28;57.89;99535.25;124632;1099;101990;-75
2023/03/07 06:41:38;;;;;;;;;;;;;;;5.34;58.55;99543.31;124930;1099;102043;-77
2023/03/07 06:44:10;;;;;;;41.63;19.97;;;;;;;5.39;57.91;99533.09;124311;1099;102086;-72
2023/03/07 06:46:42;;;;;;;41.23;19.90;;;;;;;5.46;57.62;99539.45;124184;1099;104169;-71
2023/03/07 06:49:17;;;;;;;43.73;20.97;;;;;;;5.51;57.47;99536.20;124715;1099;101696;-73
2023/03/07 06:51:51;;;;;;;46.13;21.47;;;;;;;5.59;58.35;99531.30;124959;1099;104175;-72
2023/03/07 06:54:22;;;;;;;45.97;21.73;;;;;;;5.66;57.56;99530.73;124220;1099;104191;-72
2023/03/07 06:56:55;;;;;;;43.43;20.80;;;;;;;5.78;57.27;99527.73;124191;1099;101934;-73
2023/03/07 06:59:26;;;;;;;44.43;20.50;;;;;;;5.90;57.52;99525.58;124150;1099;104220;-72
2023/03/07 07:02:01;;;;;;;44.93;20.77;;;;;;;6.04;57.56;99527.87;124641;1099;104281;-72
2023/03/07 07:04:32;;;;;;;37.50;18.15;;;;;;;6.19;57.34;99538.00;124307;1099;101865;-73
2023/03/07 07:07:05;;;;;;;49.27;20.10;;;;;;;6.33;57.23;99536.79;124251;1099;104373;-72
2023/03/07 07:09:37;;;;;;;43.57;20.87;;;;;;;6.48;57.43;99529.54;124541;1099;104249;-73
2023/03/07 07:12:12;;;;;;;37.93;17.77;;;;;;;6.62;57.23;99534.34;124296;1099;104169;-74
2023/03/07 07:14:44;;;;;;;39.10;19.30;;;;;;;6.72;57.79;99536.46;124371;1102;104205;-73
2023/03/07 07:17:23;;;;;;;40.80;20.23;;;;;;;6.80;57.28;99531.52;125619;1098;104348;-72
2023/03/07 07:20:10;;;;;;;40.83;20.03;;;;;;;6.91;56.91;99524.08;124269;1099;102867;-74
2023/03/07 07:22:43;;;;;;;39.43;19.40;;;;;;;7.00;57.35;99519.17;124701;1099;104192;-74
2023/03/07 07:25:15;;;;;;;43.13;20.83;;;;;;;7.07;57.52;99515.92;124762;1099;104159;-72
2023/03/07 07:27:47;;;;;;;38.20;19.77;;;;;;;7.10;56.55;99512.54;124295;1099;104233;-73
2023/03/07 07:30:19;;;;;;;38.23;19.00;;;;;;;7.14;56.70;99512.70;124704;1099;101929;-74
2023/03/07 07:32:51;;;;;;;39.93;18.97;;;;;;;7.16;56.54;99511.02;124274;1099;104063;-73
2023/03/07 07:35:23;;;;;;;45.17;20.13;;;;;;;7.22;56.57;99506.86;124332;1099;104268;-74
2023/03/07 07:37:57;;;;;;;39.87;19.80;;;;;;;7.32;56.54;99507.22;124158;1102;104217;-73
2023/03/07 07:40:30;;;;;;;42.17;21.03;;;;;;;7.43;56.79;99507.53;124250;1101;104294;-73
2023/03/07 07:43:03;;;;;;;38.97;19.40;;;;;;;7.52;55.94;99518.27;124726;1099;102832;-73
2023/03/07 07:45:47;;;;;;;38.13;19.07;;;;;;;7.67;56.31;99512.66;124641;1099;104270;-73
2023/03/07 07:48:26;;;;;;;40.47;19.40;;;;;;;7.85;56.23;99514.06;124226;1102;101833;-73
2023/03/07 07:51:02;;;;;;;39.97;19.17;;;;;;;8.06;56.36;99504.27;124238;1099;104226;-73
2023/03/07 07:53:35;;;;;;;45.10;20.77;;;;;;;8.21;55.66;99503.85;124255;1102;101906;-71
2023/03/07 07:56:07;;;;;;;35.60;18.67;;;;;;;8.33;55.66;99495.45;124608;1099;104275;-71
2023/03/07 07:58:39;;;;;;;41.13;19.27;;;;;;;8.53;55.56;99498.67;124176;1102;104162;-71
2023/03/07 08:01:19;;;;;;;40.27;19.80;;;;;;;8.65;54.96;99500.75;124209;1099;104274;-73
2023/03/07 08:03:51;;;;;;;37.57;18.80;;;;;;;8.79;55.10;99502.00;124656;1097;101982;-74
2023/03/07 08:06:24;;;;;;;41.77;19.40;;;;;;;8.90;54.99;99485.72;124629;1099;101946;-73
2023/03/07 08:08:58;;;;;;;39.18;19.67;;;;;;;8.96;54.80;99475.37;124626;1099;102516;-72
2023/03/07 08:11:32;;;;;;;38.13;18.63;;;;;;;9.00;55.04;99487.70;124549;1099;108251;-72
2023/03/07 08:14:04;;;;;;;38.33;19.70;;;;;;;9.02;54.55;99485.13;124202;1099;104224;-73
2023/03/07 08:16:35;;;;;;;39.67;18.20;;;;;;;9.09;54.53;99480.09;124672;1099;104287;-76
2023/03/07 08:19:14;;;;;;;37.37;18.43;;;;;;;9.17;54.35;99477.67;124317;1099;104227;-71
2023/03/07 08:21:45;;;;;;;37.77;18.57;;;;;;;9.21;54.23;99486.47;124266;1099;119576;-72
2023/03/07 08:24:17;;;;;;;32.10;17.00;;;;;;;9.28;54.19;99478.81;124152;1102;104370;-73
2023/03/07 08:26:52;;;;;;;35.57;17.50;;;;;;;9.38;53.73;99479.03;124615;1099;104214;-73
2023/03/07 08:29:27;;;;;;;36.13;17.33;;;;;;;9.43;54.56;99485.29;124184;1099;102384;-73
2023/03/07 08:32:01;;;;;;;34.77;16.77;;;;;;;9.55;53.92;99475.08;125565;1099;104249;-75
2023/03/07 08:34:37;;;;;;;37.50;18.17;;;;;;;9.62;53.67;99466.52;124272;1099;104299;-73
2023/03/07 08:37:10;;;;;;;38.03;17.50;;;;;;;9.66;53.99;99468.37;124260;1102;104370;-73
2023/03/07 08:39:42;;;;;;;36.63;18.50;;;;;;;9.72;53.95;99464.98;124620;1099;102322;-75
2023/03/07 08:42:19;;;;;;;35.63;16.87;;;;;;;9.81;53.60;99470.44;124826;1099;110776;-78
2023/03/07 08:44:58;;;;;;;36.20;17.90;;;;;;;9.92;53.72;99470.67;124830;1099;102101;-75
2023/03/07 08:47:31;;;;;;;37.00;17.40;;;;;;;10.05;53.76;99470.09;124858;1099;104172;-76
2023/03/07 08:50:04;;;;;;;38.67;18.17;;;;;;;10.17;53.84;99469.45;124331;1103;104689;-76
2023/03/07 08:52:36;;;;;;;38.20;18.80;;;;;;;10.26;53.22;99466.15;125011;1099;103667;-77
2023/03/07 08:55:11;;;;;;;;;;;;;;;10.34;52.32;99464.59;124996;1099;104169;-76
2023/03/07 08:57:46;;;;;;;40.80;18.37;;;;;;;10.36;53.16;99460.28;125115;1099;104173;-77
2023/03/07 09:00:24;;;;;;;35.87;16.93;;;;;;;10.38;52.77;99463.80;125148;1099;104169;-78
2023/03/07 09:02:57;;;;;;;33.77;16.77;;;;;;;10.40;52.70;99471.70;126208;1099;107072;-77
2023/03/07 09:05:36;;;;;;;32.10;15.87;;;;;;;10.42;51.73;99464.74;125061;1098;104242;-76
2023/03/07 09:08:08;;;;;;;34.37;14.97;;;;;;;10.47;51.72;99451.72;125231;1099;104185;-76
2023/03/07 09:10:44;;;;;;;29.48;15.13;;;;;;;10.54;51.98;99458.86;125028;1099;104217;-74
2023/03/07 09:13:20;;;;;;;31.43;15.27;;;;;;;10.62;51.11;99459.88;125041;1099;117911;-76
2023/03/07 09:15:54;;;;;;;32.73;16.43;;;;;;;10.77;51.69;99456.67;124734;1098;101929;-75
2023/03/07 09:18:30;;;;;;;32.07;14.77;;;;;;;10.87;50.50;99453.34;125172;1099;104235;-73
2023/03/07 09:21:03;;;;;;;35.00;16.53;;;;;;;10.88;50.76;99444.61;124363;1099;104281;-75
2023/03/07 09:23:38;;;;;;;30.53;15.97;;;;;;;10.96;50.17;99445.63;124408;1099;101931;-73
2023/03/07 09:26:10;;;;;;;32.85;15.40;;;;;;;11.10;50.88;99451.11;124402;1099;104277;-74
2023/03/07 09:28:43;;;;;;;32.80;15.53;;;;;;;11.17;50.27;99446.83;124332;1102;104238;-73
2023/03/07 09:31:16;;;;;;;34.03;16.00;;;;;;;11.23;50.41;99435.56;124845;1099;104235;-75
2023/03/07 09:33:49;;;;;;;33.90;17.32;;;;;;;11.31;49.82;99441.80;124375;1099;109436;-76
2023/03/07 09:36:20;;;;;;;36.40;17.83;;;;;;;11.39;49.88;99442.83;125045;1099;104239;-78
2023/03/07 09:38:54;;;;;;;33.97;17.50;;;;;;;11.44;49.40;99445.53;125110;1098;101817;-75
2023/03/07 09:41:50;;;;;;;32.23;15.57;;;;;;;11.55;49.73;99453.58;125481;1098;102997;-77
2023/03/07 09:44:44;;;;;;;31.73;16.27;;;;;;;11.64;49.21;99456.31;124906;1099;102359;-77
2023/03/07 09:47:58;;;;;;;31.47;16.07;;;;;;;11.70;48.68;99461.66;125171;1099;102085;-78
2023/03/07 09:50:44;;;;;;;40.37;17.27;;;;;;;11.81;48.65;99446.04;125569;1099;101839;-78
2023/03/07 09:53:28;;;;;;;34.20;17.47;;;;;;;11.87;47.95;99446.13;125366;1099;103866;-77
2023/03/07 09:56:31;;;;;;;35.23;17.57;;;;;;;11.85;48.17;99438.22;124953;1099;101988;-79
2023/03/07 09:59:13;;;;;;;34.03;17.00;;;;;;;11.87;47.76;99419.84;124602;1099;102067;-76
2023/03/07 10:01:47;;;;;;;34.00;17.00;;;;;;;12.14;47.37;99444.75;124881;1099;104297;-78
2023/03/07 10:04:40;;;;;;;35.40;17.37;;;;;;;12.33;46.96;99444.12;126502;1098;101782;-78
2023/03/07 10:07:19;;;;;;;31.90;16.23;;;;;;;12.55;48.05;99446.99;125014;1099;103697;-75
2023/03/07 10:10:13;;;;;;;27.73;13.03;;;;;;;12.71;47.47;99443.64;125254;1099;104361;-77
2023/03/07 10:13:09;;;;;;;24.80;13.10;;;;;;;12.83;47.21;99442.02;125186;1099;104230;-78
2023/03/07 10:15:57;;;;;;;26.97;13.43;;;;;;;12.93;47.60;99443.84;124690;1099;104172;-79
2023/03/07 10:19:00;;;;;;;29.13;13.30;;;;;;;13.09;47.22;99437.86;125062;1099;104252;-78
2023/03/07 10:22:04;;;;;;;26.27;13.43;;;;;;;13.20;45.82;99418.61;124565;1102;104615;-77
2023/03/07 10:24:52;;;;;;;26.13;13.50;;;;;;;13.22;46.97;99407.22;124565;1099;104445;-79
2023/03/07 10:27:31;;;;;;;30.00;13.33;;;;;;;13.22;46.03;99407.22;125245;1099;104243;-80
2023/03/07 10:30:16;;;;;;;28.43;14.63;;;;;;;13.23;46.08;99397.56;124411;1099;104283;-75
2023/03/07 10:33:01;;;;;;;27.70;14.63;;;;;;;13.15;45.99;99394.90;124273;1099;104201;-75
2023/03/07 10:35:43;;;;;;;30.03;14.60;;;;;;;13.04;45.55;99388.64;124393;1099;117833;-76
2023/03/07 10:38:38;;;;;;;28.37;14.90;;;;;;;12.96;45.06;99383.31;124340;1099;104204;-77
2023/03/07 10:41:16;;;;;;;29.73;14.67;;;;;;;12.94;45.42;99392.96;124524;1099;102058;-77
2023/03/07 10:43:52;;;;;;;26.13;13.07;;;;;;;12.90;45.56;99384.16;124342;1099;104208;-77
2023/03/07 10:46:30;;;;;;;29.83;13.23;;;;;;;12.85;45.62;99395.52;125745;1099;104610;-79
2023/03/07 10:49:13;;;;;;;26.63;13.43;;;;;;;12.83;45.79;99400.77;125185;1099;104211;-77
2023/03/07 10:52:08;;;;;;;32.07;13.57;;;;;;;12.84;45.50;99384.11;125302;1099;101833;-82
2023/03/07 10:54:50;;;;;;;25.83;12.57;;;;;;;12.84;45.42;99385.84;125423;1099;102006;-79
2023/03/07 10:57:33;;;;;;;24.70;12.27;;;;;;;12.85;44.79;99377.95;126398;1098;104334;-80
2023/03/07 11:00:20;;;;;;;26.50;13.70;;;;;;;12.89;45.46;99368.36;126703;1098;101804;-80
2023/03/07 11:02:58;;;;;;;26.33;12.80;;;;;;;12.93;45.09;99368.39;124747;1099;104223;-78
2023/03/07 11:05:36;;;;;;;25.77;12.67;;;;;;;12.87;44.90;99367.44;124675;1099;104255;-77
2023/03/07 11:08:26;;;;;;;26.73;12.37;;;;;;;12.86;44.63;99363.94;124964;1099;101987;-76
2023/03/07 11:11:03;;;;;;;26.53;13.37;;;;;;;12.80;44.65;99358.62;124615;1099;104249;-76
2023/03/07 11:13:36;;;;;;;28.13;12.60;;;;;;;12.84;44.21;99356.88;125120;1099;102064;-74
2023/03/07 11:16:20;;;;;;;24.92;12.10;;;;;;;12.88;44.64;99350.78;124668;1099;103815;-76
2023/03/07 11:18:54;;;;;;;23.97;12.20;;;;;;;12.97;44.41;99348.22;125039;1099;104201;-76
2023/03/07 11:21:35;;;;;;;22.87;10.38;;;;;;;13.06;44.51;99350.06;125160;1099;104329;-82
2023/03/07 11:24:24;;;;;;;22.15;9.45;;;;;;;13.13;44.15;99355.38;125015;1099;101870;-75
2023/03/07 11:26:58;;;;;;;21.10;8.97;;;;;;;13.23;43.43;99347.51;125149;1099;102177;-75
2023/03/07 11:29:33;;;;;;;21.83;8.83;;;;;;;13.31;43.89;99351.09;126206;1098;102841;-75
2023/03/07 11:32:18;;;;;;;21.70;9.53;;;;;;;13.38;43.94;99352.04;124269;1099;104348;-72
2023/03/07 11:34:53;;;;;;;;;;;;;;;13.41;42.70;99342.39;125370;1098;104162;-77
2023/03/07 11:37:32;;;;;;;19.27;8.23;;;;;;;13.53;44.16;99352.13;124943;1099;104276;-75
2023/03/07 11:40:19;;;;;;;19.33;8.53;;;;;;;13.64;43.74;99345.15;124713;1098;104172;-74
2023/03/07 11:43:00;;;;;;;15.43;6.80;;;;;;;13.77;43.79;99342.56;124821;1099;102292;-76
2023/03/07 11:45:39;;;;;;;12.80;6.33;;;;;;;13.80;43.09;99342.58;124682;1099;102402;-75